Terminal Aerodrome Forecast
Issued by NWS Jackson, KY

Home | Current Version | Previous Version | Text Only | Print | Product List | Glossary On
Versions: 1 2 3 4 5 6 7 8 9 10 11 12 13 14 15 16 17 18
698
FTUS43 KJKL 031123
TAFLOZ
TAF
KLOZ 031123Z 0312/0412 32006KT P6SM OVC022
     FM031900 29008KT P6SM OVC035
     FM040100 30004KT P6SM OVC050
     FM040400 VRB03KT P6SM OVC025=

USA.gov is the U.S. government's official web portal to all federal, state and local government web resources and services.